30 septembre 2022

Temps Code Temps Temp. Vue Base cloud Vent METAR/SPECI
17:00
V
20 °C 10 km+ - 280° 280° 7 kt METAR LFBM 301500Z AUTO 28007KT 250V320 9999 // NSC 20/08 Q1016
16:30
V
20 °C 10 km+ - 300° 300° 5 kt METAR LFBM 301430Z AUTO 30005KT 230V360 9999 // NSC 20/06 Q1016
16:00
V
19 °C 10 km+ - 310° 310° 5 kt METAR LFBM 301400Z AUTO 31005KT 250V030 9999 // NSC 19/07 Q1016
15:30
V
20 °C 10 km+ 5.800 ft 280° 280° 8 kt METAR LFBM 301330Z AUTO 28008KT 180V340 9999 // FEW046 BKN058 20/08 Q1016
15:00
V
18 °C 10 km+ - 300° 300° 7 kt METAR LFBM 301300Z AUTO 30007KT 210V340 9999 // SCT045 18/07 Q1016
14:30
V
19 °C 10 km+ - 310° 310° 6 kt METAR LFBM 301230Z AUTO 31006KT 250V020 9999 // SCT041 SCT058 19/09 Q1016
14:00
V
17 °C 10 km+ - 290° 290° 6 kt METAR LFBM 301200Z AUTO 29006KT 240V330 9999 // FEW037 SCT066 17/09 Q1016
13:30
V
18 °C 10 km+ 3.600 ft Var Var 5 kt METAR LFBM 301130Z AUTO VRB05KT 9999 // BKN036 BKN050 BKN066 18/09 Q1016
13:00
V
16 °C 10 km+ - 290° 290° 5 kt METAR LFBM 301100Z AUTO 29005KT 250V360 9999 // FEW031 16/09 Q1016
12:30
V
16 °C 10 km+ 3.400 ft 320° 320° 5 kt METAR LFBM 301030Z AUTO 32005KT 290V060 9999 // SCT027 BKN034 BKN044 16/10 Q1016
12:00
M
15 °C 10 km+ 2.400 ft Var Var 4 kt METAR LFBM 301000Z AUTO VRB04KT 9999 // SCT018 BKN024 15/10 Q1015
11:30
V
15 °C 10 km+ - 330° 330° 4 kt METAR LFBM 300930Z AUTO 33004KT 290V050 9999 // FEW014 15/12 Q1015
11:00
V
14 °C 10 km+ - 320° 320° 3 kt METAR LFBM 300900Z AUTO 32003KT 280V020 9999 // FEW006 14/12 Q1015
10:30
L
12 °C 10 km+ 400 ft 300° 300° 4 kt METAR LFBM 300830Z AUTO 30004KT 260V320 9999 // BKN004 12/12 Q1014
10:00
L
12 °C 2,3 km - Var Var 2 kt METAR LFBM 300800Z AUTO VRB02KT 2300 R27/1400U // VV/// 12/11 Q1014
09:30
L
11 °C 350 m - 260° 260° 3 kt METAR LFBM 300730Z AUTO 26003KT 0350 R27/0600U // VV/// 11/11 Q1013
09:00
L
11 °C 550 m - 290° 290° 3 kt METAR LFBM 300700Z AUTO 29003KT 0550 R27/0700D // VV/// 11/11 Q1013
08:30
L
10 °C 10 km+ 400 ft Var 000° 0 kt METAR LFBM 300630Z AUTO 00000KT 9999 // OVC004 10/10 Q1012
08:00
I
10 °C 10 km+ 500 ft Var 000° 0 kt METAR LFBM 300600Z AUTO 00000KT 9999 // BKN005 OVC080 10/09 Q1012
07:30
I
10 °C 10 km+ 600 ft 040° 040° 1 kt METAR LFBM 300530Z AUTO 04001KT 9999 // BKN006 OVC078 10/09 Q1012
07:00
V
11 °C 10 km+ 7.600 ft Var 000° 0 kt METAR LFBM 300500Z AUTO 00000KT 9999 // FEW007 OVC076 11/10 Q1011
06:30
V
11 °C 10 km+ 6.400 ft Var 000° 0 kt METAR LFBM 300430Z AUTO 00000KT 9999 // SCT039/// BKN064/// OVC078/// //////TCU 11/10 Q1011
06:00
V
11 °C 10 km+ - 240° 240° 3 kt METAR LFBM 300400Z AUTO 24003KT 9999 // NSC 11/10 Q1010
05:30
V
11 °C 10 km+ - 260° 260° 3 kt METAR LFBM 300330Z AUTO 26003KT 9999 // NSC 11/10 Q1010
05:00
V
11 °C 10 km+ 7.400 ft 210° 210° 3 kt METAR LFBM 300300Z AUTO 21003KT 9999 // FEW003 BKN074 OVC100 11/11 Q1010
04:30
V
11 °C 10 km+ 7.600 ft Var Var 2 kt METAR LFBM 300230Z AUTO VRB02KT 9999 // SCT003 BKN076 BKN100 11/10 Q1010
04:00
V
11 °C 10 km+ - 240° 240° 1 kt METAR LFBM 300200Z AUTO 24001KT 9999 // NSC 11/10 Q1010
03:30
V
11 °C 10 km+ - Var Var 2 kt METAR LFBM 300130Z AUTO VRB02KT 9999 // NSC 11/10 Q1010
03:00
V
11 °C 10 km+ 7.800 ft 220° 220° 4 kt METAR LFBM 300100Z AUTO 22004KT 9999 // FEW022 SCT056 BKN078 11/10 Q1010
02:30
V
11 °C 10 km+ 5.600 ft 240° 240° 4 kt METAR LFBM 300030Z AUTO 24004KT 9999 // FEW041/// BKN056/// OVC076/// ///CB 11/11 Q1010
02:00
M
11 °C 5 km 5.400 ft 260° 260° 6 kt METAR LFBM 300000Z AUTO 26006KT 5000 // FEW021/// SCT036/// OVC054/// //////CB 11/11 Q1010
01:30
V
11 °C 10 km+ 4.100 ft Var Var 1 kt METAR LFBM 292330Z AUTO VRB01KT 9999 // BKN041/// OVC056/// ///CB 11/11 Q1010
01:00
V
11 °C 10 km+ 4.400 ft Var 000° 0 kt METAR LFBM 292300Z AUTO 00000KT 9999 // BKN044/// BKN050/// OVC094/// ///CB 11/10 Q1010
00:30
V
11 °C 10 km+ - 240° 240° 2 kt METAR LFBM 292230Z AUTO 24002KT 9999 // NSC 11/10 Q1010
00:00
V
11 °C 10 km+ - Var Var 2 kt METAR LFBM 292200Z AUTO VRB02KT 9999 // NSC 11/10 Q1009

29 septembre 2022

Temps Code Temps Temp. Vue Base cloud Vent METAR/SPECI
23:30
V
11 °C 10 km+ - 280° 280° 2 kt METAR LFBM 292130Z AUTO 28002KT 9999 // NSC 11/10 Q1009
23:00
V
11 °C 10 km+ - 290° 290° 3 kt METAR LFBM 292100Z AUTO 29003KT 9999 // NSC 11/11 Q1009
22:30
V
11 °C 10 km+ - 290° 290° 4 kt METAR LFBM 292030Z AUTO 29004KT 9999 // NSC 11/10 Q1008
22:00
V
11 °C 10 km+ - 280° 280° 4 kt METAR LFBM 292000Z AUTO 28004KT 9999 // NSC 11/11 Q1008
21:30
V
12 °C 10 km+ - 280° 280° 4 kt METAR LFBM 291930Z AUTO 28004KT 9999 // NSC 12/11 Q1007
21:00
V
12 °C 10 km+ - 280° 280° 3 kt METAR LFBM 291900Z AUTO 28003KT 9999 // NSC 12/12 Q1007
20:30
V
13 °C 10 km+ - 280° 280° 3 kt METAR LFBM 291830Z AUTO 28003KT 9999 // ///TCU 13/12 Q1006
20:00
V
13 °C 10 km+ 6.600 ft Var Var 3 kt METAR LFBM 291800Z AUTO VRB03KT 9999 // FEW019 SCT049 OVC066 13/12 Q1006
19:30
V
13 °C 10 km+ 4.000 ft 270° 270° 3 kt METAR LFBM 291730Z AUTO 27003KT 9999 // FEW034/// BKN040/// BKN047/// //////CB 13/12 Q1006
19:00
V
13 °C 10 km+ 3.200 ft Var Var 2 kt METAR LFBM 291700Z AUTO VRB02KT 9999 // SCT023/// BKN032/// BKN050/// ///CB 13/12 Q1005
18:30
M
13 °C 10 km+ 1.500 ft 330° 330° 6 kt METAR LFBM 291630Z AUTO 33006KT 290V360 9999 // BKN015/// OVC020/// //////CB 13/12 Q1005
18:00
M
16 °C 10 km+ 1.900 ft 240° 240° 5 kt METAR LFBM 291600Z AUTO 24005KT 200V260 9999 // BKN019/// BKN027/// BKN038/// //////CB 16/13 Q1005
17:30
M
16 °C 10 km+ 2.800 ft 260° 260° 8 kt METAR LFBM 291530Z AUTO 26008KT 230V300 9999 // SCT017/// BKN028/// BKN035/// //////CB 16/12 Q1005
17:00
M
16 °C 10 km+ 1.500 ft 250° 250° 8 kt METAR LFBM 291500Z AUTO 25008KT 190V270 9999 // BKN015/// BKN020/// OVC086/// ///CB 16/13 Q1004
16:30
V
16 °C 10 km+ 8.600 ft 240° 240° 9 kt METAR LFBM 291430Z AUTO 24009KT 9999 // SCT015/// SCT022/// BKN086/// //////CB 16/12 Q1004
16:00
M
16 °C 10 km+ 1.400 ft 250° 250° 9 kt METAR LFBM 291400Z AUTO 25009KT 200V280 9999 // BKN014 OVC020 16/13 Q1004
15:30
M
16 °C 10 km+ 1.400 ft 240° 240° 11 kt METAR LFBM 291330Z AUTO 24011KT 210V270 9999 // BKN014 OVC100 16/12 Q1004
15:00
M
16 °C 10 km+ 1.300 ft 260° 260° 13 kt METAR LFBM 291300Z AUTO 26013KT 9999 // BKN013/// BKN022/// OVC082/// //////TCU 16/13 Q1004
14:30
V
15 °C 10 km+ 7.400 ft 250° 250° 10 kt METAR LFBM 291230Z AUTO 25010KT 9999 // FEW014/// BKN074/// BKN090/// ///CB 15/14 Q1005
14:00
M
15 °C 10 km+ 1.400 ft 250° 250° 12 kt METAR LFBM 291200Z AUTO 25012KT 9999 // BKN014/// BKN047/// BKN070/// //////TCU 15/12 Q1005
13:30
M
15 °C 10 km+ 1.700 ft 250° 250° 10 kt METAR LFBM 291130Z AUTO 25010KT 9999 // SCT011/// BKN017/// BKN045/// //////CB 15/13 Q1005
13:00
M
15 °C 10 km+ 1.100 ft 250° 250° 11 kt METAR LFBM 291100Z AUTO 25011KT 220V280 9999 // OVC011/// ///CB 15/13 Q1005
12:30
I
15 °C 10 km+ 900 ft 240° 240° 11 kt METAR LFBM 291030Z AUTO 24011KT 210V270 9999 // OVC009/// //////TCU 15/14 Q1005
12:00
M
15 °C 10 km+ 1.000 ft 240° 240° 10 kt METAR LFBM 291000Z AUTO 24010KT 200V260 9999 // OVC010/// //////TCU 15/13 Q1005
11:30
I
15 °C 10 km+ 900 ft 240° 240° 7 kt METAR LFBM 290930Z AUTO 24007KT 210V270 9999 // BKN009/// BKN017/// BKN049/// //////TCU 15/14 Q1005
11:00
I
15 °C 10 km+ 800 ft 240° 240° 7 kt METAR LFBM 290900Z AUTO 24007KT 210V270 9999 // BKN008/// OVC012/// //////TCU 15/14 Q1005
10:30
I
15 °C 10 km+ 700 ft 240° 240° 6 kt METAR LFBM 290830Z AUTO 24006KT 210V270 9999 // BKN007 BKN022 BKN058 15/14 Q1005
10:00
V
14 °C 10 km+ 7.400 ft 230° 230° 5 kt METAR LFBM 290800Z AUTO 23005KT 200V260 9999 // SCT006 BKN074 OVC088 14/14 Q1005
09:30
V
13 °C 10 km+ - Var Var 3 kt METAR LFBM 290730Z AUTO VRB03KT 9999 // //////CB 13/13 Q1005
09:00
V
13 °C 10 km+ - 180° 180° 3 kt METAR LFBM 290700Z AUTO 18003KT 150V210 9999 // //////CB 13/12 Q1004
08:30
V
13 °C 10 km+ 8.800 ft 250° 250° 3 kt METAR LFBM 290630Z AUTO 25003KT 9999 // FEW031/// SCT068/// OVC088/// ///CB 13/12 Q1005
08:00
I
13 °C 3,6 km 4.100 ft 270° 270° 5 kt METAR LFBM 290600Z AUTO 27005KT 220V300 3600 // FEW016/// BKN041/// OVC054/// //////CB 13/12 Q1005
07:30
M
14 °C 7 km 4.500 ft 270° 270° 7 kt METAR LFBM 290530Z AUTO 27007KT 7000 // FEW004/// SCT026/// BKN045/// //////TCU 14/13 Q1005
07:00
V
14 °C 8 km 5.800 ft 240° 240° 4 kt METAR LFBM 290500Z AUTO 24004KT 8000 // FEW030/// BKN058/// BKN070/// //////CB 14/13 Q1005
06:30
V
14 °C 10 km+ 3.300 ft 270° 270° 3 kt METAR LFBM 290430Z AUTO 27003KT 9999 // FEW004/// BKN033/// BKN068/// //////CB 14/13 Q1005
06:00
V
14 °C 10 km+ 3.700 ft 250° 250° 4 kt METAR LFBM 290400Z AUTO 25004KT 9999 // FEW020/// SCT028/// BKN037/// //////CB 14/13 Q1005
05:30
M
14 °C 10 km+ 1.100 ft 270° 270° 5 kt METAR LFBM 290330Z AUTO 27005KT 240V310 9999 // SCT005/// BKN011/// BKN017/// //////CB 14/13 Q1005
05:00
M
14 °C 7 km 1.100 ft 220° 220° 4 kt METAR LFBM 290300Z AUTO 22004KT 190V250 7000 // SCT005/// BKN011/// BKN017/// ///CB 14/13 Q1005
04:30
I
14 °C 7 km 500 ft Var Var 3 kt METAR LFBM 290230Z AUTO VRB03KT 7000 // BKN005/// BKN015/// BKN021/// //////TCU 14/13 Q1005
04:00
M
14 °C 10 km+ 1.100 ft 220° 220° 4 kt METAR LFBM 290200Z AUTO 22004KT 180V260 9999 // FEW006/// BKN011/// BKN034/// //////TCU 14/13 Q1006
03:30
M
14 °C 10 km+ 1.000 ft 210° 210° 4 kt METAR LFBM 290130Z AUTO 21004KT 180V250 9999 // BKN010/// BKN023/// BKN062/// //////CB 14/13 Q1006
03:00
M
14 °C 9 km 1.200 ft 230° 230° 3 kt METAR LFBM 290100Z AUTO 23003KT 190V250 9000 // BKN012/// BKN038/// BKN060/// //////TCU 14/13 Q1006
02:30
V
14 °C 10 km+ 9.400 ft 230° 230° 4 kt METAR LFBM 290030Z AUTO 23004KT 200V260 9999 // FEW018/// SCT074/// OVC094/// ///TCU 14/13 Q1006
02:00
V
14 °C 10 km+ - 240° 240° 6 kt METAR LFBM 290000Z AUTO 24006KT 9999 // //////CB 14/13 Q1007
01:30
V
14 °C 10 km+ - 240° 240° 6 kt METAR LFBM 282330Z AUTO 24006KT 9999 // //////TCU 14/14 Q1007
01:00
V
14 °C 10 km+ 7.600 ft 240° 240° 7 kt METAR LFBM 282300Z AUTO 24007KT 200V260 9999 // FEW010/// BKN076/// BKN100/// ///TCU 14/14 Q1007
00:30
I
14 °C 10 km+ 900 ft 240° 240° 6 kt METAR LFBM 282230Z AUTO 24006KT 9999 // BKN009/// BKN017/// BKN030/// //////CB 14/14 Q1008
00:00
M
14 °C 10 km+ 1.300 ft 250° 250° 7 kt METAR LFBM 282200Z AUTO 25007KT 9999 // BKN013/// BKN048/// BKN082/// ///CB 14/14 Q1008

28 septembre 2022

Temps Code Temps Temp. Vue Base cloud Vent METAR/SPECI
23:30
M
15 °C 10 km+ 2.400 ft 250° 250° 6 kt METAR LFBM 282130Z AUTO 25006KT 9999 // FEW008/// BKN024/// BKN036/// //////TCU 15/14 Q1008
23:00
V
15 °C 8 km 4.600 ft 260° 260° 9 kt METAR LFBM 282100Z AUTO 26009KT 8000 // SCT011/// BKN046/// BKN058/// //////TCU 15/14 Q1008
22:30
M
15 °C 7 km 2.300 ft 250° 250° 9 kt METAR LFBM 282030Z AUTO 25009KT 7000 // SCT013/// BKN023/// BKN034/// //////CB 15/14 Q1008
22:00
V
15 °C 10 km+ - 250° 250° 10 kt METAR LFBM 282000Z AUTO 25010KT 9999 // //////TCU 15/14 Q1008
21:30
V
15 °C 10 km+ - 240° 240° 9 kt METAR LFBM 281930Z AUTO 24009KT 9999 // //////TCU 15/14 Q1008
21:00
V
15 °C 10 km+ 7.000 ft 250° 250° 9 kt METAR LFBM 281900Z AUTO 25009KT 9999 // FEW016/// OVC070/// ///TCU 15/14 Q1008
20:30
V
15 °C 10 km+ 4.400 ft 270° 270° 16 kt METAR LFBM 281830Z AUTO 27016KT 9999 // FEW009/// SCT021/// BKN044/// //////CB 15/14 Q1008
20:00
I
15 °C 3,6 km 3.500 ft 280° 280° 12 - 24 kt METAR LFBM 281800Z AUTO 28012G24KT 260V320 3600 // FEW009/// SCT020/// BKN035/// //////CB 15/14 Q1008
19:30
V
15 °C 10 km+ 4.600 ft 270° 270° 10 kt METAR LFBM 281730Z AUTO 27010KT 9999 // FEW016/// SCT026/// BKN046/// //////CB 15/14 Q1008
19:00
I
16 °C 3,4 km 1.600 ft 270° 270° 17 kt METAR LFBM 281700Z AUTO 27017KT 240V300 3400 // BKN016/// BKN026/// BKN060/// ///TCU 16/14 Q1008
18:30
V
17 °C 10 km+ 4.900 ft 270° 270° 19 - 29 kt METAR LFBM 281630Z AUTO 27019G29KT 9999 // FEW027/// SCT034/// BKN049/// //////TCU 17/14 Q1008
18:00
V
18 °C 10 km+ 3.500 ft 290° 290° 12 kt METAR LFBM 281600Z AUTO 29012KT 260V320 9999 // FEW017/// BKN035/// BKN042/// //////TCU 18/13 Q1008
17:30
V
20 °C 10 km+ - 270° 270° 20 kt METAR LFBM 281530Z AUTO 27020KT 9999 // //////TCU 20/12 Q1008
17:00
V
19 °C 10 km+ 3.100 ft 290° 290° 16 - 26 kt METAR LFBM 281500Z AUTO 29016G26KT 260V320 9999 // BKN031/// BKN037/// BKN043/// //////TCU 19/13 Q1008
Données plus anciennes

Nous et des tiers suivons ton comportement sur Internet sur notre site Web à l'aide de cookies. Si tu continues, nous supposons que tu acceptes notre politique en matière de cookies. Apprendre plus